Kimball Township, Michigan
Current Conditions -  °F | °C
As of 9:17 AM on Thursday 27 Nov 2014 (Local Time) from KPHN Reporting Station
Overcast Overcast  
Wind Chill: 20°   Ceiling: 5000
Heat Index: 28°   Visibility: 10mi
Dew Point: 23°   Wind: 8mph
Humidity: 80%   Direction: 280°W
Pressure: 30.12"   Gusts: NA
Location:  42.9481°N, 82.5626°W
Report Text: KPHN 271417Z AUTO 28007KT 10SM OVC050 M02/M05 A3012 RMK AO2
Loading
Personal Weather Stations






























Interactive Weather Map New forecast layout! Learn more

10-Day Weather Forecast

Advertisements
Track Severe Weather on mobile